sensor_id;sensor_type;location;lat;lon;timestamp;P1;durP1;ratioP1;P2;durP2;ratioP2
53253;SDS011;39148;53.332;6.922;2023-04-03T00:01:36;1.75;;;0.50;;
53253;SDS011;39148;53.332;6.922;2023-04-03T00:04:03;1.67;;;0.40;;
53253;SDS011;39148;53.332;6.922;2023-04-03T00:06:30;2.38;;;0.50;;
53253;SDS011;39148;53.332;6.922;2023-04-03T00:08:56;1.17;;;0.40;;
53253;SDS011;39148;53.332;6.922;2023-04-03T00:11:22;2.13;;;0.57;;
53253;SDS011;39148;53.332;6.922;2023-04-03T00:13:48;1.58;;;0.50;;
53253;SDS011;39148;53.332;6.922;2023-04-03T00:16:14;1.55;;;0.45;;
53253;SDS011;39148;53.332;6.922;2023-04-03T00:18:41;1.45;;;0.50;;
53253;SDS011;39148;53.332;6.922;2023-04-03T00:21:07;2.53;;;0.60;;
53253;SDS011;39148;53.332;6.922;2023-04-03T00:23:34;1.08;;;0.40;;
53253;SDS011;39148;53.332;6.922;2023-04-03T00:26:00;3.92;;;0.50;;
53253;SDS011;39148;53.332;6.922;2023-04-03T00:28:27;2.65;;;0.50;;
53253;SDS011;39148;53.332;6.922;2023-04-03T00:30:53;2.47;;;0.60;;
53253;SDS011;39148;53.332;6.922;2023-04-03T00:33:19;2.00;;;0.40;;
53253;SDS011;39148;53.332;6.922;2023-04-03T00:35:49;2.53;;;0.55;;
53253;SDS011;39148;53.332;6.922;2023-04-03T00:38:16;1.45;;;0.40;;
53253;SDS011;39148;53.332;6.922;2023-04-03T00:40:43;1.30;;;0.45;;
53253;SDS011;39148;53.332;6.922;2023-04-03T00:43:18;1.80;;;0.50;;
53253;SDS011;39148;53.332;6.922;2023-04-03T00:45:48;2.50;;;0.50;;
53253;SDS011;39148;53.332;6.922;2023-04-03T00:48:20;1.63;;;0.50;;
53253;SDS011;39148;53.332;6.922;2023-04-03T00:50:46;1.40;;;0.40;;
53253;SDS011;39148;53.332;6.922;2023-04-03T00:53:17;1.30;;;0.40;;
53253;SDS011;39148;53.332;6.922;2023-04-03T00:55:44;2.08;;;0.43;;
53253;SDS011;39148;53.332;6.922;2023-04-03T00:58:12;1.88;;;0.45;;
53253;SDS011;39148;53.332;6.922;2023-04-03T01:00:41;1.10;;;0.35;;
53253;SDS011;39148;53.332;6.922;2023-04-03T01:03:08;1.98;;;0.40;;
53253;SDS011;39148;53.332;6.922;2023-04-03T01:05:35;2.17;;;0.60;;
53253;SDS011;39148;53.332;6.922;2023-04-03T01:08:01;1.58;;;0.40;;
53253;SDS011;39148;53.332;6.922;2023-04-03T01:10:27;2.85;;;0.63;;
53253;SDS011;39148;53.332;6.922;2023-04-03T01:12:53;1.20;;;0.40;;
53253;SDS011;39148;53.332;6.922;2023-04-03T01:15:21;1.58;;;0.50;;
53253;SDS011;39148;53.332;6.922;2023-04-03T01:17:57;1.67;;;0.52;;
53253;SDS011;39148;53.332;6.922;2023-04-03T01:25:48;2.95;;;0.55;;
53253;SDS011;39148;53.332;6.922;2023-04-03T01:28:18;2.80;;;0.60;;
53253;SDS011;39148;53.332;6.922;2023-04-03T01:30:51;2.20;;;0.40;;
53253;SDS011;39148;53.332;6.922;2023-04-03T01:33:19;1.88;;;0.52;;
53253;SDS011;39148;53.332;6.922;2023-04-03T01:35:45;2.72;;;0.47;;
53253;SDS011;39148;53.332;6.922;2023-04-03T01:38:11;1.80;;;0.50;;
53253;SDS011;39148;53.332;6.922;2023-04-03T01:40:37;2.33;;;0.80;;
53253;SDS011;39148;53.332;6.922;2023-04-03T01:43:03;1.55;;;0.40;;
53253;SDS011;39148;53.332;6.922;2023-04-03T01:45:30;0.90;;;0.30;;
53253;SDS011;39148;53.332;6.922;2023-04-03T01:47:56;1.23;;;0.50;;
53253;SDS011;39148;53.332;6.922;2023-04-03T01:50:22;2.00;;;0.60;;
53253;SDS011;39148;53.332;6.922;2023-04-03T01:52:48;1.35;;;0.40;;
53253;SDS011;39148;53.332;6.922;2023-04-03T01:55:14;2.60;;;0.52;;
53253;SDS011;39148;53.332;6.922;2023-04-03T01:57:40;1.90;;;0.60;;
53253;SDS011;39148;53.332;6.922;2023-04-03T02:00:07;2.70;;;0.45;;
53253;SDS011;39148;53.332;6.922;2023-04-03T02:02:33;2.58;;;0.88;;
53253;SDS011;39148;53.332;6.922;2023-04-03T02:04:59;1.90;;;0.50;;
53253;SDS011;39148;53.332;6.922;2023-04-03T02:07:25;2.53;;;0.50;;
53253;SDS011;39148;53.332;6.922;2023-04-03T02:09:51;2.60;;;0.77;;
53253;SDS011;39148;53.332;6.922;2023-04-03T02:12:17;0.88;;;0.40;;
53253;SDS011;39148;53.332;6.922;2023-04-03T02:14:43;2.22;;;0.50;;
53253;SDS011;39148;53.332;6.922;2023-04-03T02:17:09;2.85;;;0.50;;
53253;SDS011;39148;53.332;6.922;2023-04-03T02:19:35;2.08;;;0.50;;
53253;SDS011;39148;53.332;6.922;2023-04-03T02:22:02;2.35;;;0.70;;
53253;SDS011;39148;53.332;6.922;2023-04-03T02:24:28;3.17;;;0.60;;
53253;SDS011;39148;53.332;6.922;2023-04-03T02:26:54;2.60;;;0.52;;
53253;SDS011;39148;53.332;6.922;2023-04-03T02:29:20;2.85;;;0.88;;
53253;SDS011;39148;53.332;6.922;2023-04-03T02:31:46;2.42;;;0.50;;
53253;SDS011;39148;53.332;6.922;2023-04-03T02:34:12;2.67;;;0.70;;
53253;SDS011;39148;53.332;6.922;2023-04-03T02:36:38;1.35;;;0.50;;
53253;SDS011;39148;53.332;6.922;2023-04-03T02:39:05;1.45;;;0.50;;
53253;SDS011;39148;53.332;6.922;2023-04-03T02:41:31;3.22;;;0.90;;
53253;SDS011;39148;53.332;6.922;2023-04-03T02:44:00;2.83;;;0.60;;
53253;SDS011;39148;53.332;6.922;2023-04-03T02:46:26;1.88;;;0.57;;
53253;SDS011;39148;53.332;6.922;2023-04-03T02:48:53;3.50;;;0.85;;
53253;SDS011;39148;53.332;6.922;2023-04-03T02:51:19;2.45;;;0.73;;
53253;SDS011;39148;53.332;6.922;2023-04-03T02:53:45;3.50;;;0.80;;
53253;SDS011;39148;53.332;6.922;2023-04-03T02:56:11;3.55;;;0.60;;
53253;SDS011;39148;53.332;6.922;2023-04-03T02:58:37;2.90;;;0.60;;
53253;SDS011;39148;53.332;6.922;2023-04-03T03:01:03;3.15;;;0.60;;
53253;SDS011;39148;53.332;6.922;2023-04-03T03:03:29;3.00;;;0.77;;
53253;SDS011;39148;53.332;6.922;2023-04-03T03:06:05;2.15;;;0.70;;
53253;SDS011;39148;53.332;6.922;2023-04-03T03:08:32;3.13;;;0.80;;
53253;SDS011;39148;53.332;6.922;2023-04-03T03:10:58;3.22;;;0.82;;
53253;SDS011;39148;53.332;6.922;2023-04-03T03:13:24;2.17;;;0.70;;
53253;SDS011;39148;53.332;6.922;2023-04-03T03:15:50;3.38;;;0.90;;
53253;SDS011;39148;53.332;6.922;2023-04-03T03:18:16;2.08;;;0.70;;
53253;SDS011;39148;53.332;6.922;2023-04-03T03:20:42;3.97;;;0.90;;
53253;SDS011;39148;53.332;6.922;2023-04-03T03:23:08;2.83;;;1.10;;
53253;SDS011;39148;53.332;6.922;2023-04-03T03:25:38;2.10;;;0.73;;
53253;SDS011;39148;53.332;6.922;2023-04-03T03:28:04;2.85;;;0.70;;
53253;SDS011;39148;53.332;6.922;2023-04-03T03:30:30;1.83;;;0.50;;
53253;SDS011;39148;53.332;6.922;2023-04-03T03:32:56;4.53;;;0.77;;
53253;SDS011;39148;53.332;6.922;2023-04-03T03:35:22;4.05;;;0.95;;
53253;SDS011;39148;53.332;6.922;2023-04-03T03:37:48;3.90;;;0.73;;
53253;SDS011;39148;53.332;6.922;2023-04-03T03:40:14;2.45;;;0.60;;
53253;SDS011;39148;53.332;6.922;2023-04-03T03:42:40;3.30;;;0.90;;
53253;SDS011;39148;53.332;6.922;2023-04-03T03:45:07;2.70;;;0.80;;
53253;SDS011;39148;53.332;6.922;2023-04-03T03:47:33;3.63;;;0.70;;
53253;SDS011;39148;53.332;6.922;2023-04-03T03:49:59;3.60;;;0.90;;
53253;SDS011;39148;53.332;6.922;2023-04-03T03:52:25;4.65;;;0.85;;
53253;SDS011;39148;53.332;6.922;2023-04-03T03:54:52;2.80;;;0.60;;
53253;SDS011;39148;53.332;6.922;2023-04-03T03:57:18;2.22;;;0.60;;
53253;SDS011;39148;53.332;6.922;2023-04-03T03:59:44;2.75;;;0.65;;
53253;SDS011;39148;53.332;6.922;2023-04-03T04:02:10;2.00;;;0.60;;
53253;SDS011;39148;53.332;6.922;2023-04-03T04:04:36;3.80;;;0.90;;
53253;SDS011;39148;53.332;6.922;2023-04-03T04:07:03;2.70;;;0.73;;
53253;SDS011;39148;53.332;6.922;2023-04-03T04:09:29;2.85;;;1.00;;
53253;SDS011;39148;53.332;6.922;2023-04-03T04:11:55;3.92;;;0.90;;
53253;SDS011;39148;53.332;6.922;2023-04-03T04:14:21;4.60;;;1.20;;
53253;SDS011;39148;53.332;6.922;2023-04-03T04:16:48;3.30;;;0.90;;
53253;SDS011;39148;53.332;6.922;2023-04-03T04:19:14;3.55;;;0.70;;
53253;SDS011;39148;53.332;6.922;2023-04-03T04:21:40;3.42;;;0.80;;
53253;SDS011;39148;53.332;6.922;2023-04-03T04:24:07;1.42;;;0.60;;
53253;SDS011;39148;53.332;6.922;2023-04-03T04:26:33;3.30;;;0.80;;
53253;SDS011;39148;53.332;6.922;2023-04-03T04:28:59;2.20;;;0.70;;
53253;SDS011;39148;53.332;6.922;2023-04-03T04:31:25;2.65;;;0.75;;
53253;SDS011;39148;53.332;6.922;2023-04-03T04:33:52;2.63;;;0.82;;
53253;SDS011;39148;53.332;6.922;2023-04-03T04:36:18;3.42;;;0.77;;
53253;SDS011;39148;53.332;6.922;2023-04-03T04:38:45;2.60;;;0.73;;
53253;SDS011;39148;53.332;6.922;2023-04-03T04:41:11;3.10;;;0.80;;
53253;SDS011;39148;53.332;6.922;2023-04-03T04:43:37;2.53;;;0.73;;
53253;SDS011;39148;53.332;6.922;2023-04-03T04:46:04;2.63;;;1.00;;
53253;SDS011;39148;53.332;6.922;2023-04-03T04:48:31;3.92;;;0.80;;
53253;SDS011;39148;53.332;6.922;2023-04-03T04:50:57;3.22;;;0.95;;
53253;SDS011;39148;53.332;6.922;2023-04-03T04:53:23;3.80;;;0.77;;
53253;SDS011;39148;53.332;6.922;2023-04-03T04:55:49;3.33;;;0.98;;
53253;SDS011;39148;53.332;6.922;2023-04-03T04:58:15;2.08;;;0.73;;
53253;SDS011;39148;53.332;6.922;2023-04-03T05:00:41;4.55;;;1.05;;
53253;SDS011;39148;53.332;6.922;2023-04-03T05:03:07;2.60;;;0.80;;
53253;SDS011;39148;53.332;6.922;2023-04-03T05:05:33;3.58;;;0.80;;
53253;SDS011;39148;53.332;6.922;2023-04-03T05:08:00;4.30;;;1.00;;
53253;SDS011;39148;53.332;6.922;2023-04-03T05:10:27;3.05;;;0.80;;
53253;SDS011;39148;53.332;6.922;2023-04-03T05:12:53;4.38;;;0.88;;
53253;SDS011;39148;53.332;6.922;2023-04-03T05:15:19;3.20;;;0.90;;
53253;SDS011;39148;53.332;6.922;2023-04-03T05:17:45;3.05;;;0.70;;
53253;SDS011;39148;53.332;6.922;2023-04-03T05:20:12;4.03;;;1.10;;
53253;SDS011;39148;53.332;6.922;2023-04-03T05:22:38;3.63;;;0.85;;
53253;SDS011;39148;53.332;6.922;2023-04-03T05:25:05;4.75;;;1.00;;
53253;SDS011;39148;53.332;6.922;2023-04-03T05:27:31;4.10;;;1.10;;
53253;SDS011;39148;53.332;6.922;2023-04-03T05:29:57;2.65;;;0.70;;
53253;SDS011;39148;53.332;6.922;2023-04-03T05:32:24;5.15;;;0.98;;
53253;SDS011;39148;53.332;6.922;2023-04-03T05:34:52;2.25;;;0.80;;
53253;SDS011;39148;53.332;6.922;2023-04-03T05:37:18;2.80;;;0.80;;
53253;SDS011;39148;53.332;6.922;2023-04-03T05:39:45;3.38;;;0.75;;
53253;SDS011;39148;53.332;6.922;2023-04-03T05:42:11;4.82;;;1.02;;
53253;SDS011;39148;53.332;6.922;2023-04-03T05:44:38;2.13;;;0.70;;
53253;SDS011;39148;53.332;6.922;2023-04-03T05:47:04;4.10;;;0.80;;
53253;SDS011;39148;53.332;6.922;2023-04-03T05:49:30;2.45;;;0.93;;
53253;SDS011;39148;53.332;6.922;2023-04-03T05:51:56;2.55;;;0.73;;
53253;SDS011;39148;53.332;6.922;2023-04-03T05:54:29;2.88;;;1.10;;
53253;SDS011;39148;53.332;6.922;2023-04-03T05:56:55;3.03;;;1.15;;
53253;SDS011;39148;53.332;6.922;2023-04-03T05:59:21;2.67;;;0.80;;
53253;SDS011;39148;53.332;6.922;2023-04-03T06:01:47;3.30;;;0.95;;
53253;SDS011;39148;53.332;6.922;2023-04-03T06:04:14;3.42;;;1.00;;
53253;SDS011;39148;53.332;6.922;2023-04-03T06:09:16;3.20;;;0.80;;
53253;SDS011;39148;53.332;6.922;2023-04-03T06:11:43;3.88;;;0.95;;
53253;SDS011;39148;53.332;6.922;2023-04-03T06:14:09;2.53;;;0.77;;
53253;SDS011;39148;53.332;6.922;2023-04-03T06:16:36;3.40;;;0.90;;
53253;SDS011;39148;53.332;6.922;2023-04-03T06:19:03;4.10;;;0.85;;
53253;SDS011;39148;53.332;6.922;2023-04-03T06:21:29;2.85;;;0.90;;
53253;SDS011;39148;53.332;6.922;2023-04-03T06:23:55;3.70;;;1.08;;
53253;SDS011;39148;53.332;6.922;2023-04-03T06:26:21;3.03;;;0.82;;
53253;SDS011;39148;53.332;6.922;2023-04-03T06:28:47;3.25;;;1.08;;
53253;SDS011;39148;53.332;6.922;2023-04-03T06:31:14;4.50;;;0.82;;
53253;SDS011;39148;53.332;6.922;2023-04-03T06:33:40;2.92;;;0.80;;
53253;SDS011;39148;53.332;6.922;2023-04-03T06:36:06;4.50;;;1.00;;
53253;SDS011;39148;53.332;6.922;2023-04-03T06:38:33;4.40;;;0.90;;
53253;SDS011;39148;53.332;6.922;2023-04-03T06:40:59;3.63;;;0.82;;
53253;SDS011;39148;53.332;6.922;2023-04-03T06:43:25;2.78;;;1.00;;
53253;SDS011;39148;53.332;6.922;2023-04-03T06:45:52;4.15;;;0.70;;
53253;SDS011;39148;53.332;6.922;2023-04-03T06:48:18;2.88;;;0.80;;
53253;SDS011;39148;53.332;6.922;2023-04-03T06:50:44;3.00;;;1.00;;
53253;SDS011;39148;53.332;6.922;2023-04-03T06:53:10;4.10;;;1.02;;
53253;SDS011;39148;53.332;6.922;2023-04-03T06:55:37;4.55;;;0.68;;
53253;SDS011;39148;53.332;6.922;2023-04-03T06:58:03;2.10;;;0.70;;
53253;SDS011;39148;53.332;6.922;2023-04-03T07:00:29;2.40;;;0.80;;
53253;SDS011;39148;53.332;6.922;2023-04-03T07:02:55;3.05;;;0.80;;
53253;SDS011;39148;53.332;6.922;2023-04-03T07:05:22;2.85;;;0.90;;
53253;SDS011;39148;53.332;6.922;2023-04-03T07:07:48;2.75;;;1.00;;
53253;SDS011;39148;53.332;6.922;2023-04-03T07:10:15;2.70;;;0.80;;
53253;SDS011;39148;53.332;6.922;2023-04-03T07:12:41;4.10;;;0.93;;
53253;SDS011;39148;53.332;6.922;2023-04-03T07:15:08;3.55;;;1.00;;
53253;SDS011;39148;53.332;6.922;2023-04-03T07:17:34;4.25;;;1.20;;
53253;SDS011;39148;53.332;6.922;2023-04-03T07:20:02;4.57;;;1.10;;
53253;SDS011;39148;53.332;6.922;2023-04-03T07:22:29;3.15;;;0.90;;
53253;SDS011;39148;53.332;6.922;2023-04-03T07:24:55;3.30;;;0.88;;
53253;SDS011;39148;53.332;6.922;2023-04-03T07:27:21;4.40;;;0.95;;
53253;SDS011;39148;53.332;6.922;2023-04-03T07:29:46;2.70;;;1.00;;
53253;SDS011;39148;53.332;6.922;2023-04-03T07:32:15;4.15;;;0.88;;
53253;SDS011;39148;53.332;6.922;2023-04-03T07:34:42;4.28;;;0.90;;
53253;SDS011;39148;53.332;6.922;2023-04-03T07:37:09;4.18;;;1.10;;
53253;SDS011;39148;53.332;6.922;2023-04-03T07:39:35;3.05;;;0.90;;
53253;SDS011;39148;53.332;6.922;2023-04-03T07:42:00;3.03;;;0.80;;
53253;SDS011;39148;53.332;6.922;2023-04-03T07:44:27;3.58;;;1.10;;
53253;SDS011;39148;53.332;6.922;2023-04-03T07:46:53;5.20;;;1.63;;
53253;SDS011;39148;53.332;6.922;2023-04-03T07:49:21;3.83;;;0.95;;
53253;SDS011;39148;53.332;6.922;2023-04-03T07:51:49;3.80;;;0.80;;
53253;SDS011;39148;53.332;6.922;2023-04-03T07:54:15;5.80;;;1.38;;
53253;SDS011;39148;53.332;6.922;2023-04-03T07:56:41;3.47;;;0.90;;
53253;SDS011;39148;53.332;6.922;2023-04-03T07:59:08;4.97;;;1.08;;
53253;SDS011;39148;53.332;6.922;2023-04-03T08:01:34;2.80;;;1.02;;
53253;SDS011;39148;53.332;6.922;2023-04-03T08:04:00;4.05;;;1.15;;
53253;SDS011;39148;53.332;6.922;2023-04-03T08:06:26;2.80;;;0.98;;
53253;SDS011;39148;53.332;6.922;2023-04-03T08:08:55;3.05;;;0.80;;
53253;SDS011;39148;53.332;6.922;2023-04-03T08:11:21;3.28;;;0.80;;
53253;SDS011;39148;53.332;6.922;2023-04-03T08:13:48;3.78;;;0.85;;
53253;SDS011;39148;53.332;6.922;2023-04-03T08:16:19;2.88;;;0.80;;
53253;SDS011;39148;53.332;6.922;2023-04-03T08:18:46;3.45;;;0.82;;
53253;SDS011;39148;53.332;6.922;2023-04-03T08:21:12;4.68;;;1.25;;
53253;SDS011;39148;53.332;6.922;2023-04-03T08:23:39;4.20;;;1.02;;
53253;SDS011;39148;53.332;6.922;2023-04-03T08:26:11;2.08;;;0.80;;
53253;SDS011;39148;53.332;6.922;2023-04-03T08:28:38;3.63;;;1.10;;
53253;SDS011;39148;53.332;6.922;2023-04-03T08:31:05;3.85;;;1.00;;
53253;SDS011;39148;53.332;6.922;2023-04-03T08:33:32;3.00;;;0.73;;
53253;SDS011;39148;53.332;6.922;2023-04-03T08:35:58;2.28;;;0.77;;
53253;SDS011;39148;53.332;6.922;2023-04-03T08:38:24;3.28;;;0.90;;
53253;SDS011;39148;53.332;6.922;2023-04-03T08:43:39;1.48;;;0.63;;
53253;SDS011;39148;53.332;6.922;2023-04-03T08:46:11;4.57;;;1.10;;
53253;SDS011;39148;53.332;6.922;2023-04-03T08:48:41;2.55;;;0.82;;
53253;SDS011;39148;53.332;6.922;2023-04-03T08:51:13;3.47;;;0.90;;
53253;SDS011;39148;53.332;6.922;2023-04-03T08:53:41;6.32;;;1.38;;
53253;SDS011;39148;53.332;6.922;2023-04-03T08:56:09;3.33;;;0.95;;
53253;SDS011;39148;53.332;6.922;2023-04-03T08:58:58;3.00;;;1.00;;
53253;SDS011;39148;53.332;6.922;2023-04-03T09:01:38;3.05;;;0.90;;
53253;SDS011;39148;53.332;6.922;2023-04-03T09:04:09;3.90;;;1.00;;
53253;SDS011;39148;53.332;6.922;2023-04-03T09:06:37;2.85;;;0.82;;
53253;SDS011;39148;53.332;6.922;2023-04-03T09:09:12;3.95;;;1.15;;
53253;SDS011;39148;53.332;6.922;2023-04-03T09:11:45;3.78;;;0.88;;
53253;SDS011;39148;53.332;6.922;2023-04-03T09:14:36;4.38;;;1.27;;
53253;SDS011;39148;53.332;6.922;2023-04-03T09:17:00;2.53;;;0.80;;
53253;SDS011;39148;53.332;6.922;2023-04-03T09:21:54;3.10;;;0.95;;
53253;SDS011;39148;53.332;6.922;2023-04-03T09:24:21;4.10;;;0.80;;
53253;SDS011;39148;53.332;6.922;2023-04-03T09:26:53;3.78;;;0.80;;
53253;SDS011;39148;53.332;6.922;2023-04-03T09:29:21;3.85;;;0.98;;
53253;SDS011;39148;53.332;6.922;2023-04-03T09:31:50;2.80;;;0.90;;
53253;SDS011;39148;53.332;6.922;2023-04-03T09:36:50;3.75;;;0.80;;
53253;SDS011;39148;53.332;6.922;2023-04-03T09:39:18;3.25;;;1.15;;
53253;SDS011;39148;53.332;6.922;2023-04-03T09:42:03;3.40;;;1.00;;
53253;SDS011;39148;53.332;6.922;2023-04-03T09:44:31;4.63;;;0.90;;
53253;SDS011;39148;53.332;6.922;2023-04-03T09:46:57;3.65;;;0.90;;
53253;SDS011;39148;53.332;6.922;2023-04-03T09:49:24;2.55;;;0.80;;
53253;SDS011;39148;53.332;6.922;2023-04-03T09:51:50;3.25;;;0.90;;
53253;SDS011;39148;53.332;6.922;2023-04-03T09:57:01;3.53;;;1.10;;
53253;SDS011;39148;53.332;6.922;2023-04-03T09:59:27;3.42;;;0.70;;
53253;SDS011;39148;53.332;6.922;2023-04-03T10:01:57;2.97;;;0.90;;
53253;SDS011;39148;53.332;6.922;2023-04-03T10:04:24;1.42;;;0.40;;
53253;SDS011;39148;53.332;6.922;2023-04-03T10:06:54;2.33;;;0.70;;
53253;SDS011;39148;53.332;6.922;2023-04-03T10:14:38;3.10;;;0.77;;
53253;SDS011;39148;53.332;6.922;2023-04-03T10:22:16;2.50;;;0.80;;
53253;SDS011;39148;53.332;6.922;2023-04-03T10:27:17;3.85;;;0.90;;
53253;SDS011;39148;53.332;6.922;2023-04-03T10:34:42;2.70;;;0.80;;
53253;SDS011;39148;53.332;6.922;2023-04-03T10:40:37;2.80;;;0.80;;
53253;SDS011;39148;53.332;6.922;2023-04-03T10:42:39;2.97;;;0.68;;
53253;SDS011;39148;53.332;6.922;2023-04-03T10:50:29;2.22;;;0.70;;
53253;SDS011;39148;53.332;6.922;2023-04-03T10:53:01;2.33;;;0.73;;
53253;SDS011;39148;53.332;6.922;2023-04-03T10:55:34;2.30;;;0.80;;
53253;SDS011;39148;53.332;6.922;2023-04-03T10:58:02;2.10;;;0.77;;
53253;SDS011;39148;53.332;6.922;2023-04-03T11:00:39;2.63;;;0.63;;
53253;SDS011;39148;53.332;6.922;2023-04-03T11:03:14;2.67;;;0.55;;
53253;SDS011;39148;53.332;6.922;2023-04-03T11:05:47;3.67;;;0.60;;
53253;SDS011;39148;53.332;6.922;2023-04-03T11:08:23;2.60;;;0.77;;
53253;SDS011;39148;53.332;6.922;2023-04-03T11:10:51;3.50;;;0.70;;
53253;SDS011;39148;53.332;6.922;2023-04-03T11:13:22;2.85;;;0.80;;
53253;SDS011;39148;53.332;6.922;2023-04-03T11:15:50;1.90;;;0.60;;
53253;SDS011;39148;53.332;6.922;2023-04-03T11:18:22;2.25;;;0.70;;
53253;SDS011;39148;53.332;6.922;2023-04-03T11:21:04;1.95;;;0.55;;
53253;SDS011;39148;53.332;6.922;2023-04-03T11:23:36;4.10;;;1.02;;
53253;SDS011;39148;53.332;6.922;2023-04-03T11:26:11;2.00;;;0.60;;
53253;SDS011;39148;53.332;6.922;2023-04-03T11:28:38;2.15;;;0.70;;
53253;SDS011;39148;53.332;6.922;2023-04-03T11:38:48;1.52;;;0.40;;
53253;SDS011;39148;53.332;6.922;2023-04-03T11:41:16;3.30;;;0.82;;
53253;SDS011;39148;53.332;6.922;2023-04-03T11:43:55;2.08;;;0.60;;
53253;SDS011;39148;53.332;6.922;2023-04-03T11:46:22;3.22;;;0.50;;
53253;SDS011;39148;53.332;6.922;2023-04-03T11:49:49;2.10;;;0.60;;
53253;SDS011;39148;53.332;6.922;2023-04-03T11:51:54;2.10;;;0.55;;
53253;SDS011;39148;53.332;6.922;2023-04-03T11:54:35;3.17;;;0.70;;
53253;SDS011;39148;53.332;6.922;2023-04-03T11:59:46;2.60;;;0.50;;
53253;SDS011;39148;53.332;6.922;2023-04-03T12:05:28;1.17;;;0.30;;
53253;SDS011;39148;53.332;6.922;2023-04-03T12:10:39;1.63;;;0.50;;
53253;SDS011;39148;53.332;6.922;2023-04-03T12:13:15;1.20;;;0.38;;
53253;SDS011;39148;53.332;6.922;2023-04-03T12:15:49;1.67;;;0.50;;
53253;SDS011;39148;53.332;6.922;2023-04-03T12:21:01;2.50;;;0.70;;
53253;SDS011;39148;53.332;6.922;2023-04-03T12:23:32;1.27;;;0.40;;
53253;SDS011;39148;53.332;6.922;2023-04-03T12:26:18;1.90;;;0.57;;
53253;SDS011;39148;53.332;6.922;2023-04-03T12:28:46;3.67;;;0.90;;
53253;SDS011;39148;53.332;6.922;2023-04-03T12:31:13;1.63;;;0.43;;
53253;SDS011;39148;53.332;6.922;2023-04-03T12:37:14;2.42;;;0.60;;
53253;SDS011;39148;53.332;6.922;2023-04-03T12:39:14;2.55;;;0.63;;
53253;SDS011;39148;53.332;6.922;2023-04-03T12:41:51;2.70;;;0.65;;
53253;SDS011;39148;53.332;6.922;2023-04-03T12:44:25;3.95;;;0.70;;
53253;SDS011;39148;53.332;6.922;2023-04-03T12:46:53;3.10;;;0.70;;
53253;SDS011;39148;53.332;6.922;2023-04-03T12:51:58;2.30;;;0.50;;
53253;SDS011;39148;53.332;6.922;2023-04-03T12:54:37;3.22;;;0.68;;
53253;SDS011;39148;53.332;6.922;2023-04-03T12:57:26;3.53;;;0.88;;
53253;SDS011;39148;53.332;6.922;2023-04-03T12:59:55;3.20;;;0.82;;
53253;SDS011;39148;53.332;6.922;2023-04-03T13:04:48;2.47;;;0.80;;
53253;SDS011;39148;53.332;6.922;2023-04-03T13:07:34;2.00;;;0.73;;
53253;SDS011;39148;53.332;6.922;2023-04-03T13:10:09;2.30;;;0.60;;
53253;SDS011;39148;53.332;6.922;2023-04-03T13:15:13;3.22;;;0.57;;
53253;SDS011;39148;53.332;6.922;2023-04-03T13:17:40;1.63;;;0.50;;
53253;SDS011;39148;53.332;6.922;2023-04-03T13:20:15;3.63;;;0.80;;
53253;SDS011;39148;53.332;6.922;2023-04-03T13:23:05;1.05;;;0.50;;
53253;SDS011;39148;53.332;6.922;2023-04-03T13:25:31;2.55;;;0.50;;
53253;SDS011;39148;53.332;6.922;2023-04-03T13:27:59;1.58;;;0.90;;
53253;SDS011;39148;53.332;6.922;2023-04-03T13:32:52;2.55;;;0.60;;
53253;SDS011;39148;53.332;6.922;2023-04-03T13:35:32;1.48;;;0.40;;
53253;SDS011;39148;53.332;6.922;2023-04-03T13:38:00;2.33;;;0.80;;
53253;SDS011;39148;53.332;6.922;2023-04-03T13:40:26;2.40;;;0.70;;
53253;SDS011;39148;53.332;6.922;2023-04-03T13:43:06;2.00;;;0.55;;
53253;SDS011;39148;53.332;6.922;2023-04-03T13:45:33;1.80;;;0.50;;
53253;SDS011;39148;53.332;6.922;2023-04-03T13:48:10;2.45;;;0.60;;
53253;SDS011;39148;53.332;6.922;2023-04-03T13:50:53;1.98;;;0.60;;
53253;SDS011;39148;53.332;6.922;2023-04-03T13:53:20;2.45;;;0.45;;
53253;SDS011;39148;53.332;6.922;2023-04-03T13:55:57;2.90;;;0.68;;
53253;SDS011;39148;53.332;6.922;2023-04-03T13:58:25;2.85;;;0.50;;
53253;SDS011;39148;53.332;6.922;2023-04-03T14:01:06;2.15;;;0.50;;
53253;SDS011;39148;53.332;6.922;2023-04-03T14:03:56;1.58;;;0.55;;
53253;SDS011;39148;53.332;6.922;2023-04-03T14:06:18;2.70;;;0.55;;
53253;SDS011;39148;53.332;6.922;2023-04-03T14:08:45;2.00;;;0.50;;
53253;SDS011;39148;53.332;6.922;2023-04-03T14:11:14;2.13;;;0.65;;
53253;SDS011;39148;53.332;6.922;2023-04-03T14:13:41;1.00;;;0.28;;
53253;SDS011;39148;53.332;6.922;2023-04-03T14:16:07;2.97;;;0.70;;
53253;SDS011;39148;53.332;6.922;2023-04-03T14:18:37;1.90;;;0.55;;
53253;SDS011;39148;53.332;6.922;2023-04-03T14:21:03;2.55;;;0.60;;
53253;SDS011;39148;53.332;6.922;2023-04-03T14:23:29;2.40;;;0.50;;
53253;SDS011;39148;53.332;6.922;2023-04-03T14:25:56;2.22;;;0.60;;
53253;SDS011;39148;53.332;6.922;2023-04-03T14:28:22;2.83;;;0.40;;
53253;SDS011;39148;53.332;6.922;2023-04-03T14:30:49;0.88;;;0.32;;
53253;SDS011;39148;53.332;6.922;2023-04-03T14:33:17;1.83;;;0.65;;
53253;SDS011;39148;53.332;6.922;2023-04-03T14:35:44;2.30;;;0.40;;
53253;SDS011;39148;53.332;6.922;2023-04-03T14:38:21;1.75;;;0.50;;
53253;SDS011;39148;53.332;6.922;2023-04-03T14:40:47;2.85;;;0.50;;
53253;SDS011;39148;53.332;6.922;2023-04-03T14:43:13;3.47;;;0.63;;
53253;SDS011;39148;53.332;6.922;2023-04-03T14:45:40;1.25;;;0.50;;
53253;SDS011;39148;53.332;6.922;2023-04-03T14:48:06;2.28;;;0.50;;
53253;SDS011;39148;53.332;6.922;2023-04-03T14:50:41;1.33;;;0.50;;
53253;SDS011;39148;53.332;6.922;2023-04-03T14:53:07;1.48;;;0.40;;
53253;SDS011;39148;53.332;6.922;2023-04-03T14:55:33;1.88;;;0.47;;
53253;SDS011;39148;53.332;6.922;2023-04-03T14:58:00;1.90;;;0.63;;
53253;SDS011;39148;53.332;6.922;2023-04-03T15:00:26;1.45;;;0.40;;
53253;SDS011;39148;53.332;6.922;2023-04-03T15:02:52;1.15;;;0.52;;
53253;SDS011;39148;53.332;6.922;2023-04-03T15:05:18;1.10;;;0.38;;
53253;SDS011;39148;53.332;6.922;2023-04-03T15:07:47;0.88;;;0.35;;
53253;SDS011;39148;53.332;6.922;2023-04-03T15:10:23;1.63;;;0.55;;
53253;SDS011;39148;53.332;6.922;2023-04-03T15:12:49;1.63;;;0.50;;
53253;SDS011;39148;53.332;6.922;2023-04-03T15:15:16;1.52;;;0.32;;
53253;SDS011;39148;53.332;6.922;2023-04-03T15:17:44;1.25;;;0.45;;
53253;SDS011;39148;53.332;6.922;2023-04-03T15:20:16;2.85;;;0.70;;
53253;SDS011;39148;53.332;6.922;2023-04-03T15:22:42;1.73;;;0.50;;
53253;SDS011;39148;53.332;6.922;2023-04-03T15:25:08;1.67;;;0.40;;
53253;SDS011;39148;53.332;6.922;2023-04-03T15:27:35;1.08;;;0.32;;
53253;SDS011;39148;53.332;6.922;2023-04-03T15:30:01;0.82;;;0.40;;
53253;SDS011;39148;53.332;6.922;2023-04-03T15:32:27;2.38;;;0.50;;
53253;SDS011;39148;53.332;6.922;2023-04-03T15:34:53;0.45;;;0.25;;
53253;SDS011;39148;53.332;6.922;2023-04-03T15:37:19;2.08;;;0.32;;
53253;SDS011;39148;53.332;6.922;2023-04-03T15:39:45;2.60;;;0.40;;
53253;SDS011;39148;53.332;6.922;2023-04-03T15:42:11;3.47;;;0.60;;
53253;SDS011;39148;53.332;6.922;2023-04-03T15:44:37;1.70;;;0.50;;
53253;SDS011;39148;53.332;6.922;2023-04-03T15:47:03;2.70;;;0.32;;
53253;SDS011;39148;53.332;6.922;2023-04-03T15:49:29;1.50;;;0.40;;
53253;SDS011;39148;53.332;6.922;2023-04-03T15:51:56;1.75;;;0.40;;
53253;SDS011;39148;53.332;6.922;2023-04-03T15:54:22;3.00;;;0.40;;
53253;SDS011;39148;53.332;6.922;2023-04-03T15:56:49;3.30;;;0.60;;
53253;SDS011;39148;53.332;6.922;2023-04-03T15:59:15;1.55;;;0.40;;
53253;SDS011;39148;53.332;6.922;2023-04-03T16:01:42;1.95;;;0.50;;
53253;SDS011;39148;53.332;6.922;2023-04-03T16:04:08;2.17;;;0.40;;
53253;SDS011;39148;53.332;6.922;2023-04-03T16:06:35;2.85;;;0.60;;
53253;SDS011;39148;53.332;6.922;2023-04-03T16:09:01;1.20;;;0.40;;
53253;SDS011;39148;53.332;6.922;2023-04-03T16:11:27;1.33;;;0.47;;